sensor_id;sensor_type;location;lat;lon;timestamp;pressure;altitude;pressure_sealevel;temperature;humidity
72157;BME280;60035;52.122;5.406;2022-12-18T00:01:23;103099.78;;;-3.27;96.38
72157;BME280;60035;52.122;5.406;2022-12-18T00:03:52;103094.75;;;-3.27;96.28
72157;BME280;60035;52.122;5.406;2022-12-18T00:06:20;103089.56;;;-3.30;96.43
72157;BME280;60035;52.122;5.406;2022-12-18T00:08:47;103080.88;;;-3.35;96.29
72157;BME280;60035;52.122;5.406;2022-12-18T00:11:16;103071.53;;;-3.38;96.34
72157;BME280;60035;52.122;5.406;2022-12-18T00:13:43;103069.31;;;-3.46;96.28
72157;BME280;60035;52.122;5.406;2022-12-18T00:16:12;103073.16;;;-3.52;96.24
72157;BME280;60035;52.122;5.406;2022-12-18T00:18:40;103068.72;;;-3.56;95.83
72157;BME280;60035;52.122;5.406;2022-12-18T00:21:09;103079.31;;;-3.60;95.64
72157;BME280;60035;52.122;5.406;2022-12-18T00:23:36;103080.59;;;-3.53;96.00
72157;BME280;60035;52.122;5.406;2022-12-18T00:26:07;103080.69;;;-3.52;95.98
72157;BME280;60035;52.122;5.406;2022-12-18T00:28:34;103093.88;;;-3.54;96.28
72157;BME280;60035;52.122;5.406;2022-12-18T00:31:06;103087.03;;;-3.57;96.12
72157;BME280;60035;52.122;5.406;2022-12-18T00:33:33;103089.53;;;-3.57;95.82
72157;BME280;60035;52.122;5.406;2022-12-18T00:36:05;103084.19;;;-3.61;95.64
72157;BME280;60035;52.122;5.406;2022-12-18T00:38:32;103074.47;;;-3.70;95.78
72157;BME280;60035;52.122;5.406;2022-12-18T00:40:59;103076.22;;;-3.69;96.07
72157;BME280;60035;52.122;5.406;2022-12-18T00:43:26;103077.94;;;-3.68;95.90
72157;BME280;60035;52.122;5.406;2022-12-18T00:45:53;103075.75;;;-3.63;95.46
72157;BME280;60035;52.122;5.406;2022-12-18T00:48:20;103076.09;;;-3.71;95.72
72157;BME280;60035;52.122;5.406;2022-12-18T00:50:50;103068.06;;;-3.78;95.67
72157;BME280;60035;52.122;5.406;2022-12-18T00:53:17;103071.47;;;-3.78;95.97
72157;BME280;60035;52.122;5.406;2022-12-18T00:55:44;103070.38;;;-3.81;95.85
72157;BME280;60035;52.122;5.406;2022-12-18T00:58:12;103076.47;;;-3.78;95.81
72157;BME280;60035;52.122;5.406;2022-12-18T01:00:40;103078.00;;;-3.80;95.85
72157;BME280;60035;52.122;5.406;2022-12-18T01:03:06;103078.00;;;-3.80;95.75
72157;BME280;60035;52.122;5.406;2022-12-18T01:05:33;103077.31;;;-3.77;95.83
72157;BME280;60035;52.122;5.406;2022-12-18T01:08:00;103058.19;;;-3.77;96.04
72157;BME280;60035;52.122;5.406;2022-12-18T01:10:27;103061.34;;;-3.79;95.72
72157;BME280;60035;52.122;5.406;2022-12-18T01:12:53;103067.03;;;-3.82;96.00
72157;BME280;60035;52.122;5.406;2022-12-18T01:15:20;103067.78;;;-3.83;96.25
72157;BME280;60035;52.122;5.406;2022-12-18T01:17:46;103068.34;;;-3.87;95.81
72157;BME280;60035;52.122;5.406;2022-12-18T01:20:13;103067.38;;;-3.89;96.31
72157;BME280;60035;52.122;5.406;2022-12-18T01:22:40;103065.66;;;-3.90;96.06
72157;BME280;60035;52.122;5.406;2022-12-18T01:25:07;103074.22;;;-3.87;96.12
72157;BME280;60035;52.122;5.406;2022-12-18T01:27:34;103084.78;;;-3.91;95.94
72157;BME280;60035;52.122;5.406;2022-12-18T01:30:00;103086.34;;;-3.93;95.68
72157;BME280;60035;52.122;5.406;2022-12-18T01:32:30;103091.34;;;-3.93;96.06
72157;BME280;60035;52.122;5.406;2022-12-18T01:34:56;103093.72;;;-3.94;95.74
72157;BME280;60035;52.122;5.406;2022-12-18T01:37:23;103093.06;;;-3.92;95.93
72157;BME280;60035;52.122;5.406;2022-12-18T01:39:52;103088.84;;;-3.93;95.66
72157;BME280;60035;52.122;5.406;2022-12-18T01:42:21;103093.63;;;-3.96;95.88
72157;BME280;60035;52.122;5.406;2022-12-18T01:47:58;103101.50;;;-4.03;95.83
72157;BME280;60035;52.122;5.406;2022-12-18T01:50:40;103097.06;;;-4.07;96.19
72157;BME280;60035;52.122;5.406;2022-12-18T01:53:20;103095.97;;;-4.11;95.66
72157;BME280;60035;52.122;5.406;2022-12-18T01:55:52;103096.84;;;-4.10;95.61
72157;BME280;60035;52.122;5.406;2022-12-18T01:58:21;103094.25;;;-4.12;95.56
72157;BME280;60035;52.122;5.406;2022-12-18T02:00:49;103086.44;;;-4.16;95.49
72157;BME280;60035;52.122;5.406;2022-12-18T02:03:15;103096.88;;;-4.22;95.84
72157;BME280;60035;52.122;5.406;2022-12-18T02:06:04;103101.78;;;-4.24;95.58
72157;BME280;60035;52.122;5.406;2022-12-18T02:08:44;103098.88;;;-4.30;95.68
72157;BME280;60035;52.122;5.406;2022-12-18T02:11:44;103112.03;;;-4.32;95.79
72157;BME280;60035;52.122;5.406;2022-12-18T02:14:25;103102.56;;;-4.37;95.68
72157;BME280;60035;52.122;5.406;2022-12-18T02:28:23;103109.44;;;-4.46;95.33
72157;BME280;60035;52.122;5.406;2022-12-18T02:30:53;103116.84;;;-4.47;95.31
72157;BME280;60035;52.122;5.406;2022-12-18T02:33:23;103112.81;;;-4.45;95.42
72157;BME280;60035;52.122;5.406;2022-12-18T02:35:52;103107.72;;;-4.47;95.66
72157;BME280;60035;52.122;5.406;2022-12-18T02:38:20;103105.97;;;-4.48;95.34
72157;BME280;60035;52.122;5.406;2022-12-18T02:40:48;103095.66;;;-4.53;95.10
72157;BME280;60035;52.122;5.406;2022-12-18T02:43:16;103099.69;;;-4.55;95.24
72157;BME280;60035;52.122;5.406;2022-12-18T02:45:55;103101.31;;;-4.55;95.00
72157;BME280;60035;52.122;5.406;2022-12-18T02:48:25;103082.94;;;-4.56;94.70
72157;BME280;60035;52.122;5.406;2022-12-18T02:51:14;103078.59;;;-4.58;94.75
72157;BME280;60035;52.122;5.406;2022-12-18T02:54:10;103084.25;;;-4.61;95.13
72157;BME280;60035;52.122;5.406;2022-12-18T02:56:46;103079.16;;;-4.62;94.95
72157;BME280;60035;52.122;5.406;2022-12-18T02:59:19;103079.16;;;-4.62;94.71
72157;BME280;60035;52.122;5.406;2022-12-18T03:01:58;103078.41;;;-4.61;95.01
72157;BME280;60035;52.122;5.406;2022-12-18T03:04:38;103078.06;;;-4.66;94.17
72157;BME280;60035;52.122;5.406;2022-12-18T03:07:10;103071.88;;;-4.71;94.88
72157;BME280;60035;52.122;5.406;2022-12-18T03:09:43;103063.63;;;-4.70;94.87
72157;BME280;60035;52.122;5.406;2022-12-18T03:12:22;103064.28;;;-4.73;94.54
72157;BME280;60035;52.122;5.406;2022-12-18T03:15:01;103054.84;;;-4.77;94.52
72157;BME280;60035;52.122;5.406;2022-12-18T03:17:32;103059.06;;;-4.76;94.31
72157;BME280;60035;52.122;5.406;2022-12-18T03:20:05;103058.97;;;-4.77;94.39
72157;BME280;60035;52.122;5.406;2022-12-18T03:22:35;103060.81;;;-4.75;94.75
72157;BME280;60035;52.122;5.406;2022-12-18T03:25:06;103051.47;;;-4.77;94.34
72157;BME280;60035;52.122;5.406;2022-12-18T03:27:42;103049.53;;;-4.81;94.37
72157;BME280;60035;52.122;5.406;2022-12-18T03:30:12;103046.69;;;-4.86;93.88
72157;BME280;60035;52.122;5.406;2022-12-18T03:32:47;103046.50;;;-4.89;93.83
72157;BME280;60035;52.122;5.406;2022-12-18T03:35:20;103051.91;;;-4.95;93.90
72157;BME280;60035;52.122;5.406;2022-12-18T03:37:47;103043.34;;;-4.98;93.91
72157;BME280;60035;52.122;5.406;2022-12-18T03:40:15;103041.72;;;-4.98;93.73
72157;BME280;60035;52.122;5.406;2022-12-18T03:42:56;103038.91;;;-5.03;94.04
72157;BME280;60035;52.122;5.406;2022-12-18T03:45:41;103031.19;;;-5.06;93.89
72157;BME280;60035;52.122;5.406;2022-12-18T03:48:16;103033.38;;;-5.10;93.60
72157;BME280;60035;52.122;5.406;2022-12-18T03:50:59;103035.75;;;-5.12;94.29
72157;BME280;60035;52.122;5.406;2022-12-18T03:53:47;103028.13;;;-5.13;93.51
72157;BME280;60035;52.122;5.406;2022-12-18T03:56:18;103032.38;;;-5.12;93.70
72157;BME280;60035;52.122;5.406;2022-12-18T03:58:45;103031.53;;;-5.13;94.14
72157;BME280;60035;52.122;5.406;2022-12-18T04:01:14;103025.63;;;-5.13;93.87
72157;BME280;60035;52.122;5.406;2022-12-18T04:03:43;103029.56;;;-5.17;93.32
72157;BME280;60035;52.122;5.406;2022-12-18T04:06:12;103026.75;;;-5.22;93.68
72157;BME280;60035;52.122;5.406;2022-12-18T04:08:40;103025.13;;;-5.21;93.47
72157;BME280;60035;52.122;5.406;2022-12-18T04:11:07;103023.94;;;-5.26;93.73
72157;BME280;60035;52.122;5.406;2022-12-18T04:13:37;103021.44;;;-5.26;93.69
72157;BME280;60035;52.122;5.406;2022-12-18T04:16:04;103009.59;;;-5.29;93.35
72157;BME280;60035;52.122;5.406;2022-12-18T04:18:31;102999.28;;;-5.33;93.88
72157;BME280;60035;52.122;5.406;2022-12-18T04:20:58;102998.19;;;-5.37;93.39
72157;BME280;60035;52.122;5.406;2022-12-18T04:23:24;102992.22;;;-5.39;93.34
72157;BME280;60035;52.122;5.406;2022-12-18T04:25:51;102994.72;;;-5.39;93.50
72157;BME280;60035;52.122;5.406;2022-12-18T04:28:18;103002.84;;;-5.42;93.47
72157;BME280;60035;52.122;5.406;2022-12-18T04:30:48;102998.41;;;-5.46;93.40
72157;BME280;60035;52.122;5.406;2022-12-18T04:33:14;102997.31;;;-5.49;93.50
72157;BME280;60035;52.122;5.406;2022-12-18T04:35:42;102997.31;;;-5.49;93.63
72157;BME280;60035;52.122;5.406;2022-12-18T04:38:09;103002.19;;;-5.51;93.86
72157;BME280;60035;52.122;5.406;2022-12-18T04:40:38;103000.81;;;-5.47;93.98
72157;BME280;60035;52.122;5.406;2022-12-18T04:43:07;103001.44;;;-5.50;93.61
72157;BME280;60035;52.122;5.406;2022-12-18T04:45:33;103007.19;;;-5.51;93.74
72157;BME280;60035;52.122;5.406;2022-12-18T04:48:01;103018.81;;;-5.52;93.89
72157;BME280;60035;52.122;5.406;2022-12-18T04:50:29;103020.44;;;-5.52;93.62
72157;BME280;60035;52.122;5.406;2022-12-18T04:52:56;103028.81;;;-5.52;93.11
72157;BME280;60035;52.122;5.406;2022-12-18T04:55:22;103031.16;;;-5.53;93.47
72157;BME280;60035;52.122;5.406;2022-12-18T04:57:49;103029.44;;;-5.54;93.23
72157;BME280;60035;52.122;5.406;2022-12-18T05:00:15;103030.41;;;-5.52;94.01
72157;BME280;60035;52.122;5.406;2022-12-18T05:02:42;103048.00;;;-5.50;93.67
72157;BME280;60035;52.122;5.406;2022-12-18T05:05:09;103039.66;;;-5.51;93.27
72157;BME280;60035;52.122;5.406;2022-12-18T05:07:35;103038.13;;;-5.49;93.81
72157;BME280;60035;52.122;5.406;2022-12-18T05:10:03;103046.69;;;-5.45;93.84
72157;BME280;60035;52.122;5.406;2022-12-18T05:12:31;103044.94;;;-5.46;93.48
72157;BME280;60035;52.122;5.406;2022-12-18T05:14:57;103044.19;;;-5.45;93.44
72157;BME280;60035;52.122;5.406;2022-12-18T05:17:24;103052.56;;;-5.45;93.59
72157;BME280;60035;52.122;5.406;2022-12-18T05:19:51;103055.19;;;-5.43;93.52
72157;BME280;60035;52.122;5.406;2022-12-18T05:22:17;103055.28;;;-5.42;93.65
72157;BME280;60035;52.122;5.406;2022-12-18T05:24:44;103061.91;;;-5.42;93.22
72157;BME280;60035;52.122;5.406;2022-12-18T05:27:10;103062.66;;;-5.43;93.62
72157;BME280;60035;52.122;5.406;2022-12-18T05:29:37;103065.06;;;-5.45;93.23
72157;BME280;60035;52.122;5.406;2022-12-18T05:32:04;103072.66;;;-5.43;93.10
72157;BME280;60035;52.122;5.406;2022-12-18T05:34:30;103075.78;;;-5.46;92.95
72157;BME280;60035;52.122;5.406;2022-12-18T05:36:58;103075.03;;;-5.45;93.36
72157;BME280;60035;52.122;5.406;2022-12-18T05:39:24;103073.41;;;-5.44;92.68
72157;BME280;60035;52.122;5.406;2022-12-18T05:41:51;103071.13;;;-5.41;93.28
72157;BME280;60035;52.122;5.406;2022-12-18T05:44:18;103058.44;;;-5.44;93.14
72157;BME280;60035;52.122;5.406;2022-12-18T05:46:44;103058.22;;;-5.47;92.66
72157;BME280;60035;52.122;5.406;2022-12-18T05:49:11;103047.88;;;-5.52;92.73
72157;BME280;60035;52.122;5.406;2022-12-18T05:51:40;103048.63;;;-5.53;92.58
72157;BME280;60035;52.122;5.406;2022-12-18T05:54:07;103041.28;;;-5.52;92.54
72157;BME280;60035;52.122;5.406;2022-12-18T05:56:34;103038.66;;;-5.53;92.99
72157;BME280;60035;52.122;5.406;2022-12-18T05:59:00;103042.78;;;-5.54;92.69
72157;BME280;60035;52.122;5.406;2022-12-18T06:01:28;103035.19;;;-5.55;92.74
72157;BME280;60035;52.122;5.406;2022-12-18T06:03:54;103030.31;;;-5.54;93.00
72157;BME280;60035;52.122;5.406;2022-12-18T06:06:23;103034.44;;;-5.54;92.40
72157;BME280;60035;52.122;5.406;2022-12-18T06:08:51;103031.06;;;-5.55;92.86
72157;BME280;60035;52.122;5.406;2022-12-18T06:11:20;103031.94;;;-5.54;92.59
72157;BME280;60035;52.122;5.406;2022-12-18T06:13:51;103026.81;;;-5.56;92.04
72157;BME280;60035;52.122;5.406;2022-12-18T06:16:24;103031.81;;;-5.56;92.40
72157;BME280;60035;52.122;5.406;2022-12-18T06:18:51;103017.50;;;-5.58;92.60
72157;BME280;60035;52.122;5.406;2022-12-18T06:21:17;103017.50;;;-5.58;92.47
72157;BME280;60035;52.122;5.406;2022-12-18T06:23:44;103012.38;;;-5.60;92.28
72157;BME280;60035;52.122;5.406;2022-12-18T06:26:11;103009.03;;;-5.60;92.26
72157;BME280;60035;52.122;5.406;2022-12-18T06:28:39;103012.28;;;-5.61;92.10
72157;BME280;60035;52.122;5.406;2022-12-18T06:31:06;103022.25;;;-5.61;92.42
72157;BME280;60035;52.122;5.406;2022-12-18T06:33:34;103016.41;;;-5.62;92.34
72157;BME280;60035;52.122;5.406;2022-12-18T06:36:02;103002.72;;;-5.67;92.01
72157;BME280;60035;52.122;5.406;2022-12-18T06:38:31;103001.53;;;-5.72;91.89
72157;BME280;60035;52.122;5.406;2022-12-18T06:40:57;102998.19;;;-5.73;92.21
72157;BME280;60035;52.122;5.406;2022-12-18T06:43:24;102995.69;;;-5.73;92.02
72157;BME280;60035;52.122;5.406;2022-12-18T06:45:50;102997.19;;;-5.75;91.68
72157;BME280;60035;52.122;5.406;2022-12-18T06:48:19;102994.69;;;-5.75;92.39
72157;BME280;60035;52.122;5.406;2022-12-18T06:50:46;102983.84;;;-5.75;91.79
72157;BME280;60035;52.122;5.406;2022-12-18T06:53:15;102976.91;;;-5.79;91.57
72157;BME280;60035;52.122;5.406;2022-12-18T06:55:42;102975.81;;;-5.83;92.35
72157;BME280;60035;52.122;5.406;2022-12-18T06:58:09;102982.41;;;-5.83;92.18
72157;BME280;60035;52.122;5.406;2022-12-18T07:00:36;102976.66;;;-5.82;91.82
72157;BME280;60035;52.122;5.406;2022-12-18T07:03:03;102968.31;;;-5.83;91.88
72157;BME280;60035;52.122;5.406;2022-12-18T07:05:30;102973.97;;;-5.86;92.17
72157;BME280;60035;52.122;5.406;2022-12-18T07:07:57;102968.31;;;-5.83;92.27
72157;BME280;60035;52.122;5.406;2022-12-18T07:10:24;102968.44;;;-5.81;92.26
72157;BME280;60035;52.122;5.406;2022-12-18T07:12:51;102972.56;;;-5.82;91.84
72157;BME280;60035;52.122;5.406;2022-12-18T07:15:17;102967.44;;;-5.83;92.25
72157;BME280;60035;52.122;5.406;2022-12-18T07:17:44;102958.25;;;-5.84;91.71
72157;BME280;60035;52.122;5.406;2022-12-18T07:20:10;102953.00;;;-5.88;91.74
72157;BME280;60035;52.122;5.406;2022-12-18T07:22:37;102954.44;;;-5.91;91.69
72157;BME280;60035;52.122;5.406;2022-12-18T07:25:04;102957.91;;;-5.89;92.06
72157;BME280;60035;52.122;5.406;2022-12-18T07:27:30;102955.59;;;-5.86;92.32
72157;BME280;60035;52.122;5.406;2022-12-18T07:29:57;102956.59;;;-5.84;92.30
72157;BME280;60035;52.122;5.406;2022-12-18T07:32:23;102947.28;;;-5.87;92.24
72157;BME280;60035;52.122;5.406;2022-12-18T07:34:50;102951.41;;;-5.87;91.44
72157;BME280;60035;52.122;5.406;2022-12-18T07:37:16;102938.59;;;-5.92;91.96
72157;BME280;60035;52.122;5.406;2022-12-18T07:39:42;102935.34;;;-5.91;91.89
72157;BME280;60035;52.122;5.406;2022-12-18T07:42:09;102938.81;;;-5.89;91.76
72157;BME280;60035;52.122;5.406;2022-12-18T07:44:54;102927.84;;;-5.91;91.79
72157;BME280;60035;52.122;5.406;2022-12-18T07:47:20;102931.75;;;-5.94;91.81
72157;BME280;60035;52.122;5.406;2022-12-18T07:49:47;102917.66;;;-5.94;91.87
72157;BME280;60035;52.122;5.406;2022-12-18T07:52:13;102920.81;;;-5.96;91.63
72157;BME280;60035;52.122;5.406;2022-12-18T07:54:40;102915.81;;;-5.96;91.76
72157;BME280;60035;52.122;5.406;2022-12-18T07:57:07;102911.50;;;-5.99;92.43
72157;BME280;60035;52.122;5.406;2022-12-18T07:59:54;102911.16;;;-5.92;91.73
72157;BME280;60035;52.122;5.406;2022-12-18T08:02:20;102917.22;;;-5.88;92.09
72157;BME280;60035;52.122;5.406;2022-12-18T08:04:47;102909.19;;;-5.84;92.52
72157;BME280;60035;52.122;5.406;2022-12-18T08:07:13;102897.06;;;-5.79;92.61
72157;BME280;60035;52.122;5.406;2022-12-18T08:09:39;102890.53;;;-5.77;92.23
72157;BME280;60035;52.122;5.406;2022-12-18T08:12:06;102892.28;;;-5.76;91.66
72157;BME280;60035;52.122;5.406;2022-12-18T08:14:32;102895.63;;;-5.76;91.84
72157;BME280;60035;52.122;5.406;2022-12-18T08:16:58;102891.63;;;-5.74;91.87
72157;BME280;60035;52.122;5.406;2022-12-18T08:19:25;102888.50;;;-5.71;91.92
72157;BME280;60035;52.122;5.406;2022-12-18T08:21:52;102894.44;;;-5.69;91.85
72157;BME280;60035;52.122;5.406;2022-12-18T08:24:18;102892.50;;;-5.61;92.39
72157;BME280;60035;52.122;5.406;2022-12-18T08:26:44;102906.59;;;-5.62;92.28
72157;BME280;60035;52.122;5.406;2022-12-18T08:29:31;102911.25;;;-5.66;91.77
72157;BME280;60035;52.122;5.406;2022-12-18T08:31:58;102922.34;;;-5.63;92.17
72157;BME280;60035;52.122;5.406;2022-12-18T08:34:24;102935.16;;;-5.58;92.51
72157;BME280;60035;52.122;5.406;2022-12-18T08:36:51;102929.81;;;-5.51;92.49
72157;BME280;60035;52.122;5.406;2022-12-18T08:39:17;102917.66;;;-5.46;92.79
72157;BME280;60035;52.122;5.406;2022-12-18T08:41:44;102921.13;;;-5.44;91.98
72157;BME280;60035;52.122;5.406;2022-12-18T08:44:35;102915.28;;;-5.45;92.68
72157;BME280;60035;52.122;5.406;2022-12-18T08:47:06;102906.34;;;-5.41;91.71
72157;BME280;60035;52.122;5.406;2022-12-18T08:49:33;102917.97;;;-5.42;92.16
72157;BME280;60035;52.122;5.406;2022-12-18T08:52:00;102911.34;;;-5.41;92.23
72157;BME280;60035;52.122;5.406;2022-12-18T08:54:29;102913.44;;;-5.36;92.02
72157;BME280;60035;52.122;5.406;2022-12-18T08:56:55;102897.25;;;-5.29;91.96
72157;BME280;60035;52.122;5.406;2022-12-18T08:59:22;102898.63;;;-5.21;92.33
72157;BME280;60035;52.122;5.406;2022-12-18T09:01:49;102905.09;;;-5.11;92.58
72157;BME280;60035;52.122;5.406;2022-12-18T09:04:16;102926.38;;;-5.04;92.57
72157;BME280;60035;52.122;5.406;2022-12-18T09:06:43;102922.88;;;-4.94;91.84
72157;BME280;60035;52.122;5.406;2022-12-18T09:09:10;102920.13;;;-4.86;92.52
72157;BME280;60035;52.122;5.406;2022-12-18T09:11:36;102909.13;;;-4.76;92.65
72157;BME280;60035;52.122;5.406;2022-12-18T09:14:03;102899.41;;;-4.71;92.14
72157;BME280;60035;52.122;5.406;2022-12-18T09:16:32;102909.84;;;-4.65;92.79
72157;BME280;60035;52.122;5.406;2022-12-18T09:19:03;102908.72;;;-4.57;92.04
72157;BME280;60035;52.122;5.406;2022-12-18T09:21:32;102896.63;;;-4.50;91.97
72157;BME280;60035;52.122;5.406;2022-12-18T09:24:02;102898.56;;;-4.46;92.29
72157;BME280;60035;52.122;5.406;2022-12-18T09:26:30;102898.09;;;-4.41;91.84
72157;BME280;60035;52.122;5.406;2022-12-18T09:28:58;102906.00;;;-4.35;91.68
72157;BME280;60035;52.122;5.406;2022-12-18T09:31:25;102908.00;;;-4.29;92.23
72157;BME280;60035;52.122;5.406;2022-12-18T09:33:51;102900.25;;;-4.20;91.82
72157;BME280;60035;52.122;5.406;2022-12-18T09:36:18;102886.50;;;-4.13;91.52
72157;BME280;60035;52.122;5.406;2022-12-18T09:38:47;102882.66;;;-4.08;91.37
72157;BME280;60035;52.122;5.406;2022-12-18T09:41:51;102879.69;;;-4.03;91.72
72157;BME280;60035;52.122;5.406;2022-12-18T09:44:27;102866.91;;;-3.94;91.87
72157;BME280;60035;52.122;5.406;2022-12-18T09:47:16;102871.50;;;-3.87;91.52
72157;BME280;60035;52.122;5.406;2022-12-18T09:49:46;102870.91;;;-3.82;91.93
72157;BME280;60035;52.122;5.406;2022-12-18T09:52:34;102857.16;;;-3.76;91.38
72157;BME280;60035;52.122;5.406;2022-12-18T09:55:16;102858.59;;;-3.66;92.04
72157;BME280;60035;52.122;5.406;2022-12-18T09:58:00;102853.38;;;-3.56;91.44
72157;BME280;60035;52.122;5.406;2022-12-18T10:00:32;102853.94;;;-3.46;91.42
72157;BME280;60035;52.122;5.406;2022-12-18T10:03:01;102858.53;;;-3.39;91.19
72157;BME280;60035;52.122;5.406;2022-12-18T10:05:58;102858.34;;;-3.29;91.38
72157;BME280;60035;52.122;5.406;2022-12-18T10:08:33;102852.06;;;-3.22;91.25
72157;BME280;60035;52.122;5.406;2022-12-18T10:13:52;102845.63;;;-3.04;91.39
72157;BME280;60035;52.122;5.406;2022-12-18T10:16:36;102842.81;;;-2.95;91.42
72157;BME280;60035;52.122;5.406;2022-12-18T10:24:59;102845.00;;;-2.71;90.77
72157;BME280;60035;52.122;5.406;2022-12-18T10:27:27;102851.03;;;-2.68;90.68
72157;BME280;60035;52.122;5.406;2022-12-18T10:29:55;102852.94;;;-2.63;90.38
72157;BME280;60035;52.122;5.406;2022-12-18T10:32:25;102840.69;;;-2.59;90.24
72157;BME280;60035;52.122;5.406;2022-12-18T10:34:54;102835.84;;;-2.56;90.36
72157;BME280;60035;52.122;5.406;2022-12-18T10:37:28;102816.91;;;-2.51;90.33
72157;BME280;60035;52.122;5.406;2022-12-18T10:40:13;102823.03;;;-2.45;90.26
72157;BME280;60035;52.122;5.406;2022-12-18T10:43:03;102834.97;;;-2.41;90.01
72157;BME280;60035;52.122;5.406;2022-12-18T10:45:30;102823.56;;;-2.36;90.03
72157;BME280;60035;52.122;5.406;2022-12-18T10:47:56;102821.31;;;-2.31;89.60
72157;BME280;60035;52.122;5.406;2022-12-18T10:50:32;102809.78;;;-2.28;89.56
72157;BME280;60035;52.122;5.406;2022-12-18T10:53:29;102806.94;;;-2.19;89.65
72157;BME280;60035;52.122;5.406;2022-12-18T10:56:00;102810.63;;;-2.12;89.26
72157;BME280;60035;52.122;5.406;2022-12-18T10:58:29;102804.31;;;-2.06;89.52
72157;BME280;60035;52.122;5.406;2022-12-18T11:01:15;102795.31;;;-2.02;89.76
72157;BME280;60035;52.122;5.406;2022-12-18T11:06:19;102784.88;;;-1.93;89.55
72157;BME280;60035;52.122;5.406;2022-12-18T11:09:05;102779.34;;;-1.88;89.16
72157;BME280;60035;52.122;5.406;2022-12-18T11:11:39;102776.28;;;-1.82;89.11
72157;BME280;60035;52.122;5.406;2022-12-18T11:14:18;102767.19;;;-1.80;88.62
72157;BME280;60035;52.122;5.406;2022-12-18T11:16:48;102768.13;;;-1.78;88.57
72157;BME280;60035;52.122;5.406;2022-12-18T11:19:39;102767.50;;;-1.74;88.19
72157;BME280;60035;52.122;5.406;2022-12-18T11:22:21;102760.28;;;-1.68;88.08
72157;BME280;60035;52.122;5.406;2022-12-18T11:25:00;102755.50;;;-1.63;88.27
72157;BME280;60035;52.122;5.406;2022-12-18T11:27:50;102751.56;;;-1.58;87.76
72157;BME280;60035;52.122;5.406;2022-12-18T11:30:28;102740.75;;;-1.57;87.71
72157;BME280;60035;52.122;5.406;2022-12-18T11:33:05;102742.00;;;-1.48;87.75
72157;BME280;60035;52.122;5.406;2022-12-18T11:35:49;102754.88;;;-1.42;87.39
72157;BME280;60035;52.122;5.406;2022-12-18T11:38:26;102753.91;;;-1.44;87.08
72157;BME280;60035;52.122;5.406;2022-12-18T11:41:00;102755.97;;;-1.37;86.57
72157;BME280;60035;52.122;5.406;2022-12-18T11:43:50;102743.72;;;-1.31;86.76
72157;BME280;60035;52.122;5.406;2022-12-18T11:46:32;102744.66;;;-1.29;86.33
72157;BME280;60035;52.122;5.406;2022-12-18T11:49:06;102737.38;;;-1.24;86.77
72157;BME280;60035;52.122;5.406;2022-12-18T11:51:44;102732.53;;;-1.20;86.60
72157;BME280;60035;52.122;5.406;2022-12-18T11:54:15;102737.09;;;-1.12;86.57
72157;BME280;60035;52.122;5.406;2022-12-18T11:56:56;102732.22;;;-1.09;86.38
72157;BME280;60035;52.122;5.406;2022-12-18T12:00:01;102722.31;;;-1.06;86.10
72157;BME280;60035;52.122;5.406;2022-12-18T12:05:33;102711.16;;;-1.11;85.41
72157;BME280;60035;52.122;5.406;2022-12-18T12:11:10;102687.88;;;-1.07;85.19
72157;BME280;60035;52.122;5.406;2022-12-18T12:13:45;102681.22;;;-1.07;85.26
72157;BME280;60035;52.122;5.406;2022-12-18T12:16:24;102685.53;;;-1.04;85.15
72157;BME280;60035;52.122;5.406;2022-12-18T12:19:10;102678.13;;;-1.01;85.01
72157;BME280;60035;52.122;5.406;2022-12-18T12:21:41;102674.06;;;-0.99;84.65
72157;BME280;60035;52.122;5.406;2022-12-18T12:24:31;102676.72;;;-0.96;84.70
72157;BME280;60035;52.122;5.406;2022-12-18T12:27:25;102671.91;;;-0.91;84.52
72157;BME280;60035;52.122;5.406;2022-12-18T12:35:32;102668.75;;;-0.87;84.03
72157;BME280;60035;52.122;5.406;2022-12-18T12:40:34;102658.03;;;-0.83;83.81
72157;BME280;60035;52.122;5.406;2022-12-18T12:46:07;102644.75;;;-0.80;83.73
72157;BME280;60035;52.122;5.406;2022-12-18T12:48:47;102642.25;;;-0.80;83.39
72157;BME280;60035;52.122;5.406;2022-12-18T12:51:21;102634.91;;;-0.76;83.33
72157;BME280;60035;52.122;5.406;2022-12-18T12:53:49;102632.59;;;-0.71;83.68
72157;BME280;60035;52.122;5.406;2022-12-18T12:56:20;102630.88;;;-0.72;83.19
72157;BME280;60035;52.122;5.406;2022-12-18T12:59:19;102626.69;;;-0.72;82.99
72157;BME280;60035;52.122;5.406;2022-12-18T13:01:57;102628.50;;;-0.69;82.88
72157;BME280;60035;52.122;5.406;2022-12-18T13:07:19;102620.09;;;-0.70;82.79
72157;BME280;60035;52.122;5.406;2022-12-18T13:13:01;102622.03;;;-0.64;82.52
72157;BME280;60035;52.122;5.406;2022-12-18T13:15:38;102623.81;;;-0.61;82.60
72157;BME280;60035;52.122;5.406;2022-12-18T13:20:38;102630.63;;;-0.59;82.54
72157;BME280;60035;52.122;5.406;2022-12-18T13:25:53;102629.06;;;-0.57;82.62
72157;BME280;60035;52.122;5.406;2022-12-18T13:31:01;102615.59;;;-0.57;82.11
72157;BME280;60035;52.122;5.406;2022-12-18T13:36:23;102607.22;;;-0.58;81.84
72157;BME280;60035;52.122;5.406;2022-12-18T13:42:31;102605.47;;;-0.59;82.34
72157;BME280;60035;52.122;5.406;2022-12-18T13:44:39;102592.97;;;-0.57;82.08
72157;BME280;60035;52.122;5.406;2022-12-18T13:47:27;102598.00;;;-0.57;82.17
72157;BME280;60035;52.122;5.406;2022-12-18T13:49:54;102592.97;;;-0.57;81.94
72157;BME280;60035;52.122;5.406;2022-12-18T13:52:25;102581.16;;;-0.58;81.80
72157;BME280;60035;52.122;5.406;2022-12-18T13:54:53;102577.03;;;-0.58;82.14
72157;BME280;60035;52.122;5.406;2022-12-18T13:57:31;102565.28;;;-0.57;82.20
72157;BME280;60035;52.122;5.406;2022-12-18T14:00:23;102572.06;;;-0.56;82.17
72157;BME280;60035;52.122;5.406;2022-12-18T14:02:51;102572.84;;;-0.57;81.83
72157;BME280;60035;52.122;5.406;2022-12-18T14:08:08;102558.63;;;-0.57;81.99
72157;BME280;60035;52.122;5.406;2022-12-18T14:10:45;102556.09;;;-0.57;81.82
72157;BME280;60035;52.122;5.406;2022-12-18T14:13:21;102557.81;;;-0.56;81.96
72157;BME280;60035;52.122;5.406;2022-12-18T14:15:50;102554.44;;;-0.56;81.94
72157;BME280;60035;52.122;5.406;2022-12-18T14:18:24;102548.47;;;-0.58;81.38